sensor_id;sensor_type;location;lat;lon;timestamp;P1;durP1;ratioP1;P2;durP2;ratioP2
29210;SDS011;16250;49.932;10.980;2022-09-13T00:00:29;9.88;;;8.80;;
29210;SDS011;16250;49.932;10.980;2022-09-13T00:02:55;10.38;;;8.55;;
29210;SDS011;16250;49.932;10.980;2022-09-13T00:05:21;11.98;;;8.93;;
29210;SDS011;16250;49.932;10.980;2022-09-13T00:07:47;9.00;;;8.10;;
29210;SDS011;16250;49.932;10.980;2022-09-13T00:10:13;12.50;;;8.70;;
29210;SDS011;16250;49.932;10.980;2022-09-13T00:12:38;10.88;;;8.13;;
29210;SDS011;16250;49.932;10.980;2022-09-13T00:15:04;10.40;;;8.60;;
29210;SDS011;16250;49.932;10.980;2022-09-13T00:17:30;10.43;;;8.65;;
29210;SDS011;16250;49.932;10.980;2022-09-13T00:19:55;11.18;;;8.80;;
29210;SDS011;16250;49.932;10.980;2022-09-13T00:22:21;12.52;;;8.68;;
29210;SDS011;16250;49.932;10.980;2022-09-13T00:24:47;11.13;;;9.35;;
29210;SDS011;16250;49.932;10.980;2022-09-13T00:27:12;12.43;;;9.27;;
29210;SDS011;16250;49.932;10.980;2022-09-13T00:29:38;12.55;;;9.13;;
29210;SDS011;16250;49.932;10.980;2022-09-13T00:32:03;11.55;;;8.68;;
29210;SDS011;16250;49.932;10.980;2022-09-13T00:34:29;9.57;;;8.63;;
29210;SDS011;16250;49.932;10.980;2022-09-13T00:36:55;9.75;;;8.60;;
29210;SDS011;16250;49.932;10.980;2022-09-13T00:39:20;11.98;;;8.70;;
29210;SDS011;16250;49.932;10.980;2022-09-13T00:41:46;10.05;;;8.45;;
29210;SDS011;16250;49.932;10.980;2022-09-13T00:47:12;11.80;;;9.65;;
29210;SDS011;16250;49.932;10.980;2022-09-13T00:49:41;11.00;;;9.45;;
29210;SDS011;16250;49.932;10.980;2022-09-13T00:52:12;11.27;;;9.38;;
29210;SDS011;16250;49.932;10.980;2022-09-13T00:54:48;12.65;;;10.50;;
29210;SDS011;16250;49.932;10.980;2022-09-13T00:57:33;11.75;;;10.30;;
29210;SDS011;16250;49.932;10.980;2022-09-13T01:00:02;11.60;;;9.90;;
29210;SDS011;16250;49.932;10.980;2022-09-13T01:02:41;13.10;;;10.48;;
29210;SDS011;16250;49.932;10.980;2022-09-13T01:05:12;10.90;;;9.73;;
29210;SDS011;16250;49.932;10.980;2022-09-13T01:07:39;13.77;;;10.00;;
29210;SDS011;16250;49.932;10.980;2022-09-13T01:10:06;13.52;;;9.63;;
29210;SDS011;16250;49.932;10.980;2022-09-13T01:12:34;10.52;;;9.40;;
29210;SDS011;16250;49.932;10.980;2022-09-13T01:15:02;11.23;;;9.43;;
29210;SDS011;16250;49.932;10.980;2022-09-13T01:17:29;14.07;;;9.77;;
29210;SDS011;16250;49.932;10.980;2022-09-13T01:19:57;14.38;;;11.25;;
29210;SDS011;16250;49.932;10.980;2022-09-13T01:22:38;12.93;;;10.70;;
29210;SDS011;16250;49.932;10.980;2022-09-13T01:36:42;11.35;;;10.10;;
29210;SDS011;16250;49.932;10.980;2022-09-13T01:39:35;12.63;;;10.13;;
29210;SDS011;16250;49.932;10.980;2022-09-13T01:42:10;15.77;;;10.98;;
29210;SDS011;16250;49.932;10.980;2022-09-13T01:47:55;15.82;;;10.23;;
29210;SDS011;16250;49.932;10.980;2022-09-13T01:53:26;13.52;;;11.98;;
29210;SDS011;16250;49.932;10.980;2022-09-13T01:58:30;13.98;;;11.00;;
29210;SDS011;16250;49.932;10.980;2022-09-13T02:01:20;12.38;;;11.13;;
29210;SDS011;16250;49.932;10.980;2022-09-13T02:03:54;16.25;;;12.23;;
29210;SDS011;16250;49.932;10.980;2022-09-13T02:06:32;15.25;;;12.15;;
29210;SDS011;16250;49.932;10.980;2022-09-13T02:09:08;14.20;;;11.00;;
29210;SDS011;16250;49.932;10.980;2022-09-13T02:11:38;12.43;;;10.63;;
29210;SDS011;16250;49.932;10.980;2022-09-13T02:14:18;13.45;;;10.68;;
29210;SDS011;16250;49.932;10.980;2022-09-13T02:16:48;14.23;;;11.90;;
29210;SDS011;16250;49.932;10.980;2022-09-13T02:19:36;13.55;;;11.45;;
29210;SDS011;16250;49.932;10.980;2022-09-13T02:22:31;12.95;;;11.10;;
29210;SDS011;16250;49.932;10.980;2022-09-13T02:25:04;13.48;;;11.57;;
29210;SDS011;16250;49.932;10.980;2022-09-13T02:27:34;13.45;;;12.05;;
29210;SDS011;16250;49.932;10.980;2022-09-13T02:30:06;13.27;;;11.73;;
29210;SDS011;16250;49.932;10.980;2022-09-13T02:35:34;13.77;;;10.85;;
29210;SDS011;16250;49.932;10.980;2022-09-13T02:38:03;14.50;;;11.18;;
29210;SDS011;16250;49.932;10.980;2022-09-13T02:40:44;12.40;;;11.10;;
29210;SDS011;16250;49.932;10.980;2022-09-13T02:43:15;14.60;;;11.98;;
29210;SDS011;16250;49.932;10.980;2022-09-13T02:45:50;12.63;;;11.25;;
29210;SDS011;16250;49.932;10.980;2022-09-13T02:48:21;13.98;;;12.45;;
29210;SDS011;16250;49.932;10.980;2022-09-13T02:50:59;16.40;;;13.00;;
29210;SDS011;16250;49.932;10.980;2022-09-13T03:01:36;17.60;;;13.02;;
29210;SDS011;16250;49.932;10.980;2022-09-13T03:04:03;13.27;;;11.93;;
29210;SDS011;16250;49.932;10.980;2022-09-13T03:06:29;15.23;;;13.00;;
29210;SDS011;16250;49.932;10.980;2022-09-13T03:08:55;13.65;;;12.20;;
29210;SDS011;16250;49.932;10.980;2022-09-13T03:11:43;15.18;;;13.57;;
29210;SDS011;16250;49.932;10.980;2022-09-13T03:14:34;17.38;;;12.63;;
29210;SDS011;16250;49.932;10.980;2022-09-13T03:17:23;15.45;;;12.85;;
29210;SDS011;16250;49.932;10.980;2022-09-13T03:20:38;15.32;;;12.05;;
29210;SDS011;16250;49.932;10.980;2022-09-13T03:23:21;14.25;;;12.02;;
29210;SDS011;16250;49.932;10.980;2022-09-13T03:26:16;12.75;;;11.38;;
29210;SDS011;16250;49.932;10.980;2022-09-13T03:34:11;15.90;;;12.63;;
29210;SDS011;16250;49.932;10.980;2022-09-13T03:36:56;16.42;;;13.63;;
29210;SDS011;16250;49.932;10.980;2022-09-13T03:39:34;17.63;;;13.57;;
29210;SDS011;16250;49.932;10.980;2022-09-13T03:42:09;16.25;;;13.48;;
29210;SDS011;16250;49.932;10.980;2022-09-13T03:44:42;15.23;;;12.27;;
29210;SDS011;16250;49.932;10.980;2022-09-13T03:47:11;15.25;;;12.63;;
29210;SDS011;16250;49.932;10.980;2022-09-13T03:49:39;14.68;;;12.32;;
29210;SDS011;16250;49.932;10.980;2022-09-13T03:52:05;17.27;;;14.45;;
29210;SDS011;16250;49.932;10.980;2022-09-13T03:54:31;18.00;;;13.30;;
29210;SDS011;16250;49.932;10.980;2022-09-13T03:59:42;13.20;;;11.85;;
29210;SDS011;16250;49.932;10.980;2022-09-13T04:02:13;14.07;;;12.23;;
29210;SDS011;16250;49.932;10.980;2022-09-13T04:04:40;15.05;;;13.40;;
29210;SDS011;16250;49.932;10.980;2022-09-13T04:07:08;17.75;;;13.88;;
29210;SDS011;16250;49.932;10.980;2022-09-13T04:09:34;14.50;;;13.00;;
29210;SDS011;16250;49.932;10.980;2022-09-13T04:12:00;15.07;;;12.55;;
29210;SDS011;16250;49.932;10.980;2022-09-13T04:14:26;14.98;;;12.38;;
29210;SDS011;16250;49.932;10.980;2022-09-13T04:16:52;14.20;;;12.38;;
29210;SDS011;16250;49.932;10.980;2022-09-13T04:19:20;15.38;;;13.20;;
29210;SDS011;16250;49.932;10.980;2022-09-13T04:21:46;15.80;;;12.45;;
29210;SDS011;16250;49.932;10.980;2022-09-13T04:24:17;17.30;;;14.23;;
29210;SDS011;16250;49.932;10.980;2022-09-13T04:26:52;16.88;;;14.57;;
29210;SDS011;16250;49.932;10.980;2022-09-13T04:29:19;17.33;;;14.25;;
29210;SDS011;16250;49.932;10.980;2022-09-13T04:31:46;16.75;;;14.25;;
29210;SDS011;16250;49.932;10.980;2022-09-13T04:34:12;20.70;;;14.63;;
29210;SDS011;16250;49.932;10.980;2022-09-13T04:36:38;17.33;;;14.32;;
29210;SDS011;16250;49.932;10.980;2022-09-13T04:39:04;19.00;;;13.73;;
29210;SDS011;16250;49.932;10.980;2022-09-13T04:41:30;16.05;;;13.93;;
29210;SDS011;16250;49.932;10.980;2022-09-13T04:43:57;20.00;;;15.68;;
29210;SDS011;16250;49.932;10.980;2022-09-13T04:46:23;16.45;;;14.75;;
29210;SDS011;16250;49.932;10.980;2022-09-13T04:48:49;19.60;;;14.05;;
29210;SDS011;16250;49.932;10.980;2022-09-13T04:51:15;18.23;;;14.63;;
29210;SDS011;16250;49.932;10.980;2022-09-13T04:53:44;19.73;;;14.77;;
29210;SDS011;16250;49.932;10.980;2022-09-13T04:56:10;18.85;;;15.07;;
29210;SDS011;16250;49.932;10.980;2022-09-13T04:58:38;18.35;;;14.80;;
29210;SDS011;16250;49.932;10.980;2022-09-13T05:01:04;16.95;;;13.73;;
29210;SDS011;16250;49.932;10.980;2022-09-13T05:03:32;18.52;;;14.10;;
29210;SDS011;16250;49.932;10.980;2022-09-13T05:06:06;17.63;;;14.25;;
29210;SDS011;16250;49.932;10.980;2022-09-13T05:08:33;18.92;;;13.90;;
29210;SDS011;16250;49.932;10.980;2022-09-13T05:10:59;16.48;;;14.43;;
29210;SDS011;16250;49.932;10.980;2022-09-13T05:13:25;18.42;;;14.65;;
29210;SDS011;16250;49.932;10.980;2022-09-13T05:15:54;21.10;;;14.82;;
29210;SDS011;16250;49.932;10.980;2022-09-13T05:18:25;17.45;;;14.85;;
29210;SDS011;16250;49.932;10.980;2022-09-13T05:20:55;17.42;;;13.75;;
29210;SDS011;16250;49.932;10.980;2022-09-13T05:23:21;16.27;;;14.30;;
29210;SDS011;16250;49.932;10.980;2022-09-13T05:28:23;20.38;;;15.15;;
29210;SDS011;16250;49.932;10.980;2022-09-13T05:30:57;15.60;;;13.93;;
29210;SDS011;16250;49.932;10.980;2022-09-13T05:33:27;17.98;;;13.85;;
29210;SDS011;16250;49.932;10.980;2022-09-13T05:35:55;16.08;;;13.13;;
29210;SDS011;16250;49.932;10.980;2022-09-13T05:38:21;17.38;;;12.80;;
29210;SDS011;16250;49.932;10.980;2022-09-13T05:40:47;17.13;;;13.75;;
29210;SDS011;16250;49.932;10.980;2022-09-13T05:43:18;16.40;;;13.63;;
29210;SDS011;16250;49.932;10.980;2022-09-13T05:45:44;14.23;;;12.73;;
29210;SDS011;16250;49.932;10.980;2022-09-13T05:48:09;16.48;;;13.18;;
29210;SDS011;16250;49.932;10.980;2022-09-13T05:50:36;14.32;;;12.13;;
29210;SDS011;16250;49.932;10.980;2022-09-13T05:53:02;13.55;;;11.02;;
29210;SDS011;16250;49.932;10.980;2022-09-13T05:55:27;13.18;;;11.70;;
29210;SDS011;16250;49.932;10.980;2022-09-13T05:57:53;13.48;;;11.10;;
29210;SDS011;16250;49.932;10.980;2022-09-13T06:00:18;13.05;;;11.55;;
29210;SDS011;16250;49.932;10.980;2022-09-13T06:02:44;12.48;;;11.27;;
29210;SDS011;16250;49.932;10.980;2022-09-13T06:05:10;12.63;;;11.27;;
29210;SDS011;16250;49.932;10.980;2022-09-13T06:07:38;12.30;;;10.48;;
29210;SDS011;16250;49.932;10.980;2022-09-13T06:10:05;15.05;;;11.30;;
29210;SDS011;16250;49.932;10.980;2022-09-13T06:12:31;11.77;;;10.63;;
29210;SDS011;16250;49.932;10.980;2022-09-13T06:14:57;13.55;;;11.65;;
29210;SDS011;16250;49.932;10.980;2022-09-13T06:17:22;12.13;;;10.80;;
29210;SDS011;16250;49.932;10.980;2022-09-13T06:19:48;10.98;;;9.88;;
29210;SDS011;16250;49.932;10.980;2022-09-13T06:22:13;12.50;;;10.40;;
29210;SDS011;16250;49.932;10.980;2022-09-13T06:24:39;11.52;;;10.32;;
29210;SDS011;16250;49.932;10.980;2022-09-13T06:27:04;12.50;;;10.73;;
29210;SDS011;16250;49.932;10.980;2022-09-13T06:29:30;12.43;;;11.13;;
29210;SDS011;16250;49.932;10.980;2022-09-13T06:31:55;12.35;;;10.27;;
29210;SDS011;16250;49.932;10.980;2022-09-13T06:34:22;11.27;;;10.05;;
29210;SDS011;16250;49.932;10.980;2022-09-13T06:36:47;12.23;;;10.45;;
29210;SDS011;16250;49.932;10.980;2022-09-13T06:39:13;11.65;;;10.45;;
29210;SDS011;16250;49.932;10.980;2022-09-13T06:41:39;11.68;;;10.27;;
29210;SDS011;16250;49.932;10.980;2022-09-13T06:44:04;12.85;;;11.02;;
29210;SDS011;16250;49.932;10.980;2022-09-13T06:46:31;12.25;;;10.80;;
29210;SDS011;16250;49.932;10.980;2022-09-13T06:48:58;12.80;;;10.88;;
29210;SDS011;16250;49.932;10.980;2022-09-13T06:51:25;14.25;;;11.30;;
29210;SDS011;16250;49.932;10.980;2022-09-13T06:53:53;12.48;;;10.30;;
29210;SDS011;16250;49.932;10.980;2022-09-13T06:56:27;11.57;;;10.38;;
29210;SDS011;16250;49.932;10.980;2022-09-13T06:58:59;13.70;;;11.85;;
29210;SDS011;16250;49.932;10.980;2022-09-13T07:01:29;13.75;;;11.27;;
29210;SDS011;16250;49.932;10.980;2022-09-13T07:03:58;11.63;;;10.32;;
29210;SDS011;16250;49.932;10.980;2022-09-13T07:06:34;12.75;;;10.43;;
29210;SDS011;16250;49.932;10.980;2022-09-13T07:09:03;12.55;;;10.02;;
29210;SDS011;16250;49.932;10.980;2022-09-13T07:11:34;11.93;;;10.38;;
29210;SDS011;16250;49.932;10.980;2022-09-13T07:14:02;12.50;;;10.50;;
29210;SDS011;16250;49.932;10.980;2022-09-13T07:16:29;15.20;;;10.77;;
29210;SDS011;16250;49.932;10.980;2022-09-13T07:18:56;11.75;;;10.07;;
29210;SDS011;16250;49.932;10.980;2022-09-13T07:21:24;14.57;;;10.18;;
29210;SDS011;16250;49.932;10.980;2022-09-13T07:23:53;11.43;;;9.98;;
29210;SDS011;16250;49.932;10.980;2022-09-13T07:26:19;11.80;;;9.20;;
29210;SDS011;16250;49.932;10.980;2022-09-13T07:28:47;10.27;;;9.18;;
29210;SDS011;16250;49.932;10.980;2022-09-13T07:31:15;12.15;;;8.90;;
29210;SDS011;16250;49.932;10.980;2022-09-13T07:33:46;11.73;;;10.20;;
29210;SDS011;16250;49.932;10.980;2022-09-13T07:36:16;9.88;;;8.57;;
29210;SDS011;16250;49.932;10.980;2022-09-13T07:38:42;10.13;;;8.70;;
29210;SDS011;16250;49.932;10.980;2022-09-13T07:41:12;9.95;;;8.50;;
29210;SDS011;16250;49.932;10.980;2022-09-13T07:43:39;8.73;;;7.80;;
29210;SDS011;16250;49.932;10.980;2022-09-13T07:46:08;8.63;;;7.60;;
29210;SDS011;16250;49.932;10.980;2022-09-13T07:48:39;8.77;;;7.60;;
29210;SDS011;16250;49.932;10.980;2022-09-13T07:53:40;8.32;;;7.47;;
29210;SDS011;16250;49.932;10.980;2022-09-13T07:56:07;7.95;;;7.15;;
29210;SDS011;16250;49.932;10.980;2022-09-13T07:58:35;9.45;;;8.07;;
29210;SDS011;16250;49.932;10.980;2022-09-13T08:01:09;8.50;;;6.88;;
29210;SDS011;16250;49.932;10.980;2022-09-13T08:03:50;8.48;;;7.43;;
29210;SDS011;16250;49.932;10.980;2022-09-13T08:06:15;8.43;;;6.90;;
29210;SDS011;16250;49.932;10.980;2022-09-13T08:08:41;9.55;;;6.95;;
29210;SDS011;16250;49.932;10.980;2022-09-13T08:11:07;8.85;;;7.32;;
29210;SDS011;16250;49.932;10.980;2022-09-13T08:13:32;7.80;;;7.00;;
29210;SDS011;16250;49.932;10.980;2022-09-13T08:16:02;9.35;;;7.47;;
29210;SDS011;16250;49.932;10.980;2022-09-13T08:18:29;7.22;;;6.40;;
29210;SDS011;16250;49.932;10.980;2022-09-13T08:20:55;7.65;;;6.85;;
29210;SDS011;16250;49.932;10.980;2022-09-13T08:23:24;7.38;;;6.38;;
29210;SDS011;16250;49.932;10.980;2022-09-13T08:25:51;7.32;;;6.55;;
29210;SDS011;16250;49.932;10.980;2022-09-13T08:28:18;8.65;;;6.72;;
29210;SDS011;16250;49.932;10.980;2022-09-13T08:30:45;7.32;;;6.60;;
29210;SDS011;16250;49.932;10.980;2022-09-13T08:33:12;7.88;;;6.15;;
29210;SDS011;16250;49.932;10.980;2022-09-13T08:35:38;7.80;;;6.45;;
29210;SDS011;16250;49.932;10.980;2022-09-13T08:38:04;6.63;;;5.97;;
29210;SDS011;16250;49.932;10.980;2022-09-13T08:40:31;9.27;;;5.72;;
29210;SDS011;16250;49.932;10.980;2022-09-13T08:46:23;7.68;;;6.78;;
29210;SDS011;16250;49.932;10.980;2022-09-13T08:48:54;7.28;;;6.22;;
29210;SDS011;16250;49.932;10.980;2022-09-13T08:51:31;6.82;;;6.07;;
29210;SDS011;16250;49.932;10.980;2022-09-13T08:54:07;7.28;;;5.72;;
29210;SDS011;16250;49.932;10.980;2022-09-13T09:05:15;6.57;;;5.85;;
29210;SDS011;16250;49.932;10.980;2022-09-13T09:08:02;6.75;;;5.15;;
29210;SDS011;16250;49.932;10.980;2022-09-13T09:10:36;7.85;;;6.05;;
29210;SDS011;16250;49.932;10.980;2022-09-13T09:15:44;6.70;;;5.70;;
29210;SDS011;16250;49.932;10.980;2022-09-13T09:18:13;6.55;;;5.45;;
29210;SDS011;16250;49.932;10.980;2022-09-13T09:20:45;5.70;;;5.20;;
29210;SDS011;16250;49.932;10.980;2022-09-13T09:23:15;5.47;;;4.90;;
29210;SDS011;16250;49.932;10.980;2022-09-13T09:25:43;7.00;;;5.60;;
29210;SDS011;16250;49.932;10.980;2022-09-13T09:28:12;6.18;;;5.20;;
29210;SDS011;16250;49.932;10.980;2022-09-13T09:38:41;5.70;;;5.10;;
29210;SDS011;16250;49.932;10.980;2022-09-13T09:41:12;7.13;;;5.20;;
29210;SDS011;16250;49.932;10.980;2022-09-13T09:43:44;5.80;;;5.28;;
29210;SDS011;16250;49.932;10.980;2022-09-13T09:46:18;7.38;;;5.15;;
29210;SDS011;16250;49.932;10.980;2022-09-13T09:48:50;6.25;;;5.15;;
29210;SDS011;16250;49.932;10.980;2022-09-13T09:51:18;6.68;;;5.55;;
29210;SDS011;16250;49.932;10.980;2022-09-13T09:53:47;7.78;;;5.55;;
29210;SDS011;16250;49.932;10.980;2022-09-13T09:58:48;5.55;;;5.05;;
29210;SDS011;16250;49.932;10.980;2022-09-13T10:06:37;5.20;;;4.50;;
29210;SDS011;16250;49.932;10.980;2022-09-13T10:09:05;5.90;;;5.20;;
29210;SDS011;16250;49.932;10.980;2022-09-13T10:12:00;6.13;;;4.82;;
29210;SDS011;16250;49.932;10.980;2022-09-13T10:17:00;8.13;;;4.95;;
29210;SDS011;16250;49.932;10.980;2022-09-13T10:19:30;5.43;;;4.35;;
29210;SDS011;16250;49.932;10.980;2022-09-13T10:22:00;5.63;;;5.10;;
29210;SDS011;16250;49.932;10.980;2022-09-13T10:24:28;5.03;;;4.53;;
29210;SDS011;16250;49.932;10.980;2022-09-13T10:26:54;4.78;;;4.38;;
29210;SDS011;16250;49.932;10.980;2022-09-13T10:29:21;5.75;;;4.60;;
29210;SDS011;16250;49.932;10.980;2022-09-13T10:31:48;4.88;;;4.38;;
29210;SDS011;16250;49.932;10.980;2022-09-13T10:34:22;5.90;;;4.57;;
29210;SDS011;16250;49.932;10.980;2022-09-13T10:36:59;6.20;;;4.20;;
29210;SDS011;16250;49.932;10.980;2022-09-13T10:39:46;4.82;;;3.42;;
29210;SDS011;16250;49.932;10.980;2022-09-13T10:42:23;3.88;;;3.53;;
29210;SDS011;16250;49.932;10.980;2022-09-13T10:45:11;4.53;;;4.10;;
29210;SDS011;16250;49.932;10.980;2022-09-13T10:47:46;5.72;;;3.72;;
29210;SDS011;16250;49.932;10.980;2022-09-13T10:50:22;4.40;;;3.60;;
29210;SDS011;16250;49.932;10.980;2022-09-13T10:52:53;4.30;;;3.63;;
29210;SDS011;16250;49.932;10.980;2022-09-13T10:57:48;6.45;;;3.60;;
29210;SDS011;16250;49.932;10.980;2022-09-13T11:11:19;6.10;;;4.25;;
29210;SDS011;16250;49.932;10.980;2022-09-13T11:14:03;5.00;;;3.90;;
29210;SDS011;16250;49.932;10.980;2022-09-13T11:27:49;5.20;;;4.25;;
29210;SDS011;16250;49.932;10.980;2022-09-13T11:30:30;4.68;;;4.15;;
29210;SDS011;16250;49.932;10.980;2022-09-13T11:35:41;5.30;;;3.75;;
29210;SDS011;16250;49.932;10.980;2022-09-13T11:38:45;5.53;;;4.25;;
29210;SDS011;16250;49.932;10.980;2022-09-13T11:41:30;4.70;;;4.18;;
29210;SDS011;16250;49.932;10.980;2022-09-13T11:46:51;4.30;;;3.90;;
29210;SDS011;16250;49.932;10.980;2022-09-13T11:57:18;5.18;;;3.40;;
29210;SDS011;16250;49.932;10.980;2022-09-13T12:02:41;3.85;;;3.55;;
29210;SDS011;16250;49.932;10.980;2022-09-13T12:05:15;4.63;;;3.55;;
29210;SDS011;16250;49.932;10.980;2022-09-13T12:10:38;4.43;;;3.70;;
29210;SDS011;16250;49.932;10.980;2022-09-13T12:13:18;3.47;;;3.17;;
29210;SDS011;16250;49.932;10.980;2022-09-13T12:15:48;4.00;;;3.57;;
29210;SDS011;16250;49.932;10.980;2022-09-13T12:18:43;4.70;;;3.42;;
29210;SDS011;16250;49.932;10.980;2022-09-13T12:21:15;3.42;;;3.13;;
29210;SDS011;16250;49.932;10.980;2022-09-13T12:29:31;4.95;;;3.85;;
29210;SDS011;16250;49.932;10.980;2022-09-13T12:32:04;5.82;;;3.53;;
29210;SDS011;16250;49.932;10.980;2022-09-13T12:34:40;4.43;;;4.03;;
29210;SDS011;16250;49.932;10.980;2022-09-13T12:46:27;4.93;;;4.32;;
29210;SDS011;16250;49.932;10.980;2022-09-13T12:55:01;5.88;;;4.00;;
29210;SDS011;16250;49.932;10.980;2022-09-13T12:57:46;4.53;;;4.13;;
29210;SDS011;16250;49.932;10.980;2022-09-13T13:05:29;5.57;;;4.43;;
29210;SDS011;16250;49.932;10.980;2022-09-13T13:08:02;6.75;;;4.50;;
29210;SDS011;16250;49.932;10.980;2022-09-13T13:10:31;5.60;;;4.75;;
29210;SDS011;16250;49.932;10.980;2022-09-13T13:13:11;5.32;;;4.82;;
29210;SDS011;16250;49.932;10.980;2022-09-13T13:18:25;4.60;;;4.20;;
29210;SDS011;16250;49.932;10.980;2022-09-13T13:33:48;5.32;;;4.70;;
29210;SDS011;16250;49.932;10.980;2022-09-13T13:38:49;4.55;;;4.15;;
29210;SDS011;16250;49.932;10.980;2022-09-13T13:43:57;4.45;;;4.07;;
29210;SDS011;16250;49.932;10.980;2022-09-13T13:46:25;4.85;;;4.40;;
29210;SDS011;16250;49.932;10.980;2022-09-13T13:48:54;3.80;;;3.50;;
29210;SDS011;16250;49.932;10.980;2022-09-13T13:51:21;5.88;;;4.10;;
29210;SDS011;16250;49.932;10.980;2022-09-13T13:53:49;5.43;;;3.80;;
29210;SDS011;16250;49.932;10.980;2022-09-13T13:58:58;4.00;;;3.67;;
29210;SDS011;16250;49.932;10.980;2022-09-13T14:01:33;4.50;;;4.10;;
29210;SDS011;16250;49.932;10.980;2022-09-13T14:06:56;4.70;;;4.10;;
29210;SDS011;16250;49.932;10.980;2022-09-13T14:09:44;4.30;;;3.90;;
29210;SDS011;16250;49.932;10.980;2022-09-13T14:12:24;4.32;;;3.92;;
29210;SDS011;16250;49.932;10.980;2022-09-13T14:20:23;5.80;;;4.40;;
29210;SDS011;16250;49.932;10.980;2022-09-13T14:22:49;5.22;;;4.30;;
29210;SDS011;16250;49.932;10.980;2022-09-13T14:27:43;6.22;;;3.67;;
29210;SDS011;16250;49.932;10.980;2022-09-13T14:30:20;5.30;;;4.45;;
29210;SDS011;16250;49.932;10.980;2022-09-13T14:32:56;4.10;;;3.80;;
29210;SDS011;16250;49.932;10.980;2022-09-13T14:40:48;5.57;;;4.05;;
29210;SDS011;16250;49.932;10.980;2022-09-13T14:43:16;4.50;;;3.83;;
29210;SDS011;16250;49.932;10.980;2022-09-13T14:45:45;6.38;;;3.90;;
29210;SDS011;16250;49.932;10.980;2022-09-13T14:48:15;3.55;;;3.25;;
29210;SDS011;16250;49.932;10.980;2022-09-13T14:53:26;3.97;;;3.08;;
29210;SDS011;16250;49.932;10.980;2022-09-13T14:55:59;3.88;;;3.00;;
29210;SDS011;16250;49.932;10.980;2022-09-13T14:58:36;3.90;;;3.22;;
29210;SDS011;16250;49.932;10.980;2022-09-13T15:01:08;4.75;;;3.38;;
29210;SDS011;16250;49.932;10.980;2022-09-13T15:03:41;5.30;;;3.20;;
29210;SDS011;16250;49.932;10.980;2022-09-13T15:06:18;3.67;;;3.05;;
29210;SDS011;16250;49.932;10.980;2022-09-13T15:08:49;3.40;;;2.67;;
29210;SDS011;16250;49.932;10.980;2022-09-13T15:11:35;3.40;;;2.70;;
29210;SDS011;16250;49.932;10.980;2022-09-13T15:14:15;3.50;;;2.60;;
29210;SDS011;16250;49.932;10.980;2022-09-13T15:16:58;3.38;;;2.80;;
29210;SDS011;16250;49.932;10.980;2022-09-13T15:19:49;3.20;;;2.90;;
29210;SDS011;16250;49.932;10.980;2022-09-13T15:22:29;2.70;;;2.50;;
29210;SDS011;16250;49.932;10.980;2022-09-13T15:24:58;2.67;;;2.47;;
29210;SDS011;16250;49.932;10.980;2022-09-13T15:27:27;3.10;;;2.80;;
29210;SDS011;16250;49.932;10.980;2022-09-13T15:29:55;2.65;;;2.17;;
29210;SDS011;16250;49.932;10.980;2022-09-13T15:32:34;2.83;;;2.20;;
29210;SDS011;16250;49.932;10.980;2022-09-13T15:35:21;2.60;;;2.00;;
29210;SDS011;16250;49.932;10.980;2022-09-13T15:37:58;2.90;;;1.92;;
29210;SDS011;16250;49.932;10.980;2022-09-13T15:40:24;3.60;;;2.08;;
29210;SDS011;16250;49.932;10.980;2022-09-13T15:42:54;2.75;;;2.00;;
29210;SDS011;16250;49.932;10.980;2022-09-13T15:45:20;2.13;;;1.92;;
29210;SDS011;16250;49.932;10.980;2022-09-13T15:47:47;2.67;;;2.00;;
29210;SDS011;16250;49.932;10.980;2022-09-13T15:50:18;6.75;;;2.08;;
29210;SDS011;16250;49.932;10.980;2022-09-13T15:52:50;2.30;;;2.10;;
29210;SDS011;16250;49.932;10.980;2022-09-13T15:55:16;2.25;;;2.00;;
29210;SDS011;16250;49.932;10.980;2022-09-13T15:57:42;2.38;;;1.83;;
29210;SDS011;16250;49.932;10.980;2022-09-13T16:00:13;3.42;;;2.10;;
29210;SDS011;16250;49.932;10.980;2022-09-13T16:02:50;2.05;;;1.90;;
29210;SDS011;16250;49.932;10.980;2022-09-13T16:05:16;2.10;;;1.90;;
29210;SDS011;16250;49.932;10.980;2022-09-13T16:07:42;2.50;;;1.92;;
29210;SDS011;16250;49.932;10.980;2022-09-13T16:10:13;3.13;;;2.40;;
29210;SDS011;16250;49.932;10.980;2022-09-13T16:12:47;2.70;;;2.10;;
29210;SDS011;16250;49.932;10.980;2022-09-13T16:15:13;2.65;;;2.08;;
29210;SDS011;16250;49.932;10.980;2022-09-13T16:17:39;2.90;;;2.50;;
29210;SDS011;16250;49.932;10.980;2022-09-13T16:20:05;4.60;;;2.30;;
29210;SDS011;16250;49.932;10.980;2022-09-13T16:22:32;3.92;;;2.50;;
29210;SDS011;16250;49.932;10.980;2022-09-13T16:24:58;3.67;;;2.58;;
29210;SDS011;16250;49.932;10.980;2022-09-13T16:27:24;2.88;;;2.28;;
29210;SDS011;16250;49.932;10.980;2022-09-13T16:29:52;2.42;;;2.20;;
29210;SDS011;16250;49.932;10.980;2022-09-13T16:32:19;3.45;;;2.60;;
29210;SDS011;16250;49.932;10.980;2022-09-13T16:34:45;2.75;;;2.20;;
29210;SDS011;16250;49.932;10.980;2022-09-13T16:37:14;4.65;;;2.83;;
29210;SDS011;16250;49.932;10.980;2022-09-13T16:39:43;4.47;;;2.80;;
29210;SDS011;16250;49.932;10.980;2022-09-13T16:42:09;5.22;;;2.60;;
29210;SDS011;16250;49.932;10.980;2022-09-13T16:44:36;2.75;;;2.55;;
29210;SDS011;16250;49.932;10.980;2022-09-13T16:47:02;3.22;;;2.90;;
29210;SDS011;16250;49.932;10.980;2022-09-13T16:49:28;4.22;;;3.00;;
29210;SDS011;16250;49.932;10.980;2022-09-13T16:51:53;3.85;;;2.60;;
29210;SDS011;16250;49.932;10.980;2022-09-13T16:54:20;5.45;;;2.60;;
29210;SDS011;16250;49.932;10.980;2022-09-13T16:56:46;4.22;;;2.80;;
29210;SDS011;16250;49.932;10.980;2022-09-13T16:59:12;3.13;;;2.75;;
29210;SDS011;16250;49.932;10.980;2022-09-13T17:01:37;7.28;;;3.33;;
29210;SDS011;16250;49.932;10.980;2022-09-13T17:04:03;3.90;;;2.90;;
29210;SDS011;16250;49.932;10.980;2022-09-13T17:06:29;4.85;;;2.90;;
29210;SDS011;16250;49.932;10.980;2022-09-13T17:08:59;5.20;;;2.85;;
29210;SDS011;16250;49.932;10.980;2022-09-13T17:11:28;3.90;;;2.88;;
29210;SDS011;16250;49.932;10.980;2022-09-13T17:13:55;3.17;;;2.65;;
29210;SDS011;16250;49.932;10.980;2022-09-13T17:16:28;6.82;;;2.80;;
29210;SDS011;16250;49.932;10.980;2022-09-13T17:18:58;3.30;;;2.80;;
29210;SDS011;16250;49.932;10.980;2022-09-13T17:21:26;3.70;;;2.60;;
29210;SDS011;16250;49.932;10.980;2022-09-13T17:23:52;5.85;;;3.20;;
29210;SDS011;16250;49.932;10.980;2022-09-13T17:26:18;5.85;;;3.10;;
29210;SDS011;16250;49.932;10.980;2022-09-13T17:28:44;5.70;;;2.95;;
29210;SDS011;16250;49.932;10.980;2022-09-13T17:31:09;5.40;;;2.55;;
29210;SDS011;16250;49.932;10.980;2022-09-13T17:33:35;4.25;;;2.88;;
29210;SDS011;16250;49.932;10.980;2022-09-13T17:36:02;4.70;;;3.63;;
29210;SDS011;16250;49.932;10.980;2022-09-13T17:38:29;8.00;;;4.70;;
29210;SDS011;16250;49.932;10.980;2022-09-13T17:41:01;7.63;;;5.00;;
29210;SDS011;16250;49.932;10.980;2022-09-13T17:43:33;8.13;;;4.80;;
29210;SDS011;16250;49.932;10.980;2022-09-13T17:46:07;4.88;;;4.18;;
29210;SDS011;16250;49.932;10.980;2022-09-13T17:48:36;7.45;;;4.43;;
29210;SDS011;16250;49.932;10.980;2022-09-13T17:51:02;12.43;;;6.28;;
29210;SDS011;16250;49.932;10.980;2022-09-13T17:53:30;17.13;;;8.48;;
29210;SDS011;16250;49.932;10.980;2022-09-13T17:55:56;7.53;;;4.30;;